createdAt,value
2019-04-27T00:04:35.749Z,67.60
2019-04-27T00:09:43.159Z,67.70
2019-04-27T00:14:39.406Z,67.80
2019-04-27T00:19:57.195Z,67.80
2019-04-27T00:24:56.923Z,67.90
2019-04-27T00:29:56.652Z,67.60
2019-04-27T00:34:57.449Z,67.70
2019-04-27T00:40:19.006Z,67.60
2019-04-27T00:45:19.054Z,67.60
2019-04-27T00:50:18.835Z,67.60
2019-04-27T00:55:18.498Z,67.60
2019-04-27T01:00:39.030Z,67.50
2019-04-27T01:05:38.917Z,67.50
2019-04-27T01:10:38.558Z,67.30
2019-04-27T01:15:38.214Z,67.40
2019-04-27T01:20:38.814Z,67.50
2019-04-27T01:25:51.033Z,67.80
2019-04-27T01:31:00.651Z,67.80
2019-04-27T01:36:00.603Z,68.00
2019-04-27T01:41:00.659Z,68.20
2019-04-27T01:46:01.628Z,68.00
2019-04-27T01:51:02.746Z,68.20
2019-04-27T01:56:02.470Z,68.30
2019-04-27T02:01:19.846Z,68.60
2019-04-27T02:06:20.913Z,68.70
2019-04-27T02:11:20.710Z,69.10
2019-04-27T02:16:20.498Z,69.00
2019-04-27T02:21:20.911Z,69.10
2019-04-27T02:26:21.599Z,68.80
2019-04-27T02:31:35.873Z,68.80
2019-04-27T02:36:35.586Z,68.90
2019-04-27T02:41:35.251Z,68.90
2019-04-27T02:46:35.047Z,69.10
2019-04-27T02:51:59.470Z,68.90
2019-04-27T02:56:59.453Z,69.10
2019-04-27T03:02:07.436Z,69.10
2019-04-27T03:07:08.150Z,69.10
2019-04-27T03:12:10.231Z,68.90
2019-04-27T03:17:22.728Z,69.20
2019-04-27T03:22:29.606Z,69.30
2019-04-27T03:27:31.258Z,69.40
2019-04-27T03:32:31.795Z,70.10
2019-04-27T03:37:31.818Z,68.90
2019-04-27T03:42:32.616Z,68.90
2019-04-27T03:47:32.423Z,68.90
2019-04-27T03:52:46.879Z,69.00
2019-04-27T03:57:52.551Z,69.00
2019-04-27T04:02:52.346Z,68.80
2019-04-27T04:07:52.320Z,68.90
2019-04-27T04:13:01.335Z,68.70
2019-04-27T04:18:01.301Z,68.90
2019-04-27T04:23:03.355Z,68.70
2019-04-27T04:28:02.414Z,68.60
2019-04-27T04:33:02.079Z,68.50
2019-04-27T04:38:01.807Z,68.60
2019-04-27T04:43:10.815Z,68.30
2019-04-27T04:48:13.270Z,68.50
2019-04-27T04:53:13.053Z,68.10
2019-04-27T04:58:12.755Z,68.30
2019-04-27T05:03:12.706Z,67.60
2019-04-27T05:08:12.342Z,68.10
2019-04-27T05:13:12.090Z,68.10
2019-04-27T05:18:12.371Z,68.20
2019-04-27T05:23:12.014Z,68.00
2019-04-27T05:28:11.660Z,68.80
2019-04-27T05:33:11.652Z,68.90
2019-04-27T05:38:13.567Z,69.10
2019-04-27T05:43:14.445Z,69.50
2019-04-27T05:48:27.465Z,69.70
2019-04-27T05:53:20.015Z,69.70
2019-04-27T05:58:19.686Z,69.90
2019-04-27T06:03:21.021Z,70.20
2019-04-27T06:08:21.158Z,69.90
2019-04-27T06:13:20.886Z,70.20
2019-04-27T06:18:20.903Z,70.50
2019-04-27T06:23:21.029Z,70.70
2019-04-27T06:28:21.184Z,70.70
2019-04-27T06:33:29.579Z,71.00
2019-04-27T06:38:22.202Z,70.70
2019-04-27T06:43:22.074Z,70.40
2019-04-27T06:48:21.775Z,71.20
2019-04-27T06:53:21.426Z,71.30
2019-04-27T06:58:21.086Z,71.00
2019-04-27T07:03:20.734Z,71.20
2019-04-27T07:08:20.428Z,72.00
2019-04-27T07:13:20.446Z,72.30
2019-04-27T07:18:20.149Z,72.70
2019-04-27T07:23:20.997Z,72.30
2019-04-27T07:28:21.166Z,72.40
2019-04-27T07:33:20.823Z,72.40
2019-04-27T07:38:20.579Z,72.30
2019-04-27T07:43:32.209Z,72.60
2019-04-27T07:48:31.867Z,72.50
2019-04-27T07:53:32.613Z,72.30
2019-04-27T07:58:32.835Z,72.00
2019-04-27T08:03:33.627Z,72.00
2019-04-27T08:08:33.278Z,71.80
2019-04-27T08:13:33.551Z,71.90
2019-04-27T08:18:34.294Z,71.60
2019-04-27T08:23:33.958Z,71.20
2019-04-27T08:28:40.403Z,71.00
2019-04-27T08:33:40.030Z,71.00
2019-04-27T08:38:39.694Z,70.90
2019-04-27T08:43:39.642Z,70.40
2019-04-27T08:48:39.497Z,69.80
2019-04-27T08:53:39.759Z,69.90
2019-04-27T08:58:39.643Z,68.80
2019-04-27T09:03:39.540Z,68.50
2019-04-27T09:08:45.410Z,68.30
2019-04-27T09:13:59.833Z,67.30
2019-04-27T09:19:04.966Z,67.00
2019-04-27T09:24:04.702Z,66.10
2019-04-27T09:29:04.566Z,64.90
2019-04-27T09:34:05.625Z,63.60
2019-04-27T09:39:09.590Z,62.10
2019-04-27T09:44:09.539Z,62.40
2019-04-27T09:49:12.011Z,61.70
2019-04-27T09:54:10.615Z,61.10
2019-04-27T09:59:10.543Z,60.50
2019-04-27T10:04:10.262Z,58.90
2019-04-27T10:09:09.994Z,56.70
2019-04-27T10:14:09.659Z,56.80
2019-04-27T10:19:09.655Z,57.00
2019-04-27T10:24:09.279Z,56.30
2019-04-27T10:29:09.219Z,56.80
2019-04-27T10:34:09.146Z,55.60
2019-04-27T10:39:13.534Z,54.10
2019-04-27T10:44:13.714Z,53.60
2019-04-27T10:49:13.541Z,52.70
2019-04-27T10:54:13.371Z,52.20
2019-04-27T10:59:13.038Z,52.30
2019-04-27T11:04:26.054Z,51.50
2019-04-27T11:09:25.871Z,51.10
2019-04-27T11:14:26.179Z,51.60
2019-04-27T11:19:26.754Z,51.60
2019-04-27T11:24:26.808Z,51.10
2019-04-27T11:29:27.736Z,51.50
2019-04-27T11:34:46.009Z,50.60
2019-04-27T11:39:46.046Z,50.40
2019-04-27T11:44:47.066Z,49.40
2019-04-27T11:49:46.742Z,48.50
2019-04-27T11:54:46.374Z,49.20
2019-04-27T11:59:46.030Z,48.90
2019-04-27T12:04:46.729Z,49.00
2019-04-27T12:09:48.033Z,48.90
2019-04-27T12:14:48.451Z,48.90
2019-04-27T12:19:48.090Z,48.70
2019-04-27T12:24:48.002Z,49.00
2019-04-27T12:30:06.336Z,49.00
2019-04-27T12:35:06.742Z,47.70
2019-04-27T12:40:06.839Z,47.90
2019-04-27T12:45:07.235Z,48.80
2019-04-27T12:50:08.794Z,48.60
2019-04-27T12:55:18.723Z,48.50
2019-04-27T13:00:21.798Z,48.30
2019-04-27T13:05:21.435Z,48.80
2019-04-27T13:10:21.415Z,48.40
2019-04-27T13:15:21.139Z,47.40
2019-04-27T13:20:23.251Z,47.90
2019-04-27T13:25:36.814Z,48.30
2019-04-27T13:30:36.863Z,46.80
2019-04-27T13:35:36.904Z,47.30
2019-04-27T13:40:38.274Z,47.50
2019-04-27T13:46:03.370Z,47.40
2019-04-27T13:51:06.596Z,46.50
2019-04-27T13:56:17.128Z,47.30
2019-04-27T14:01:16.595Z,47.60
2019-04-27T14:06:16.370Z,48.40
2019-04-27T14:11:16.038Z,48.60
2019-04-27T14:16:15.731Z,48.80
2019-04-27T14:21:15.675Z,49.10
2019-04-27T14:26:15.403Z,49.30
2019-04-27T14:31:15.341Z,49.30
2019-04-27T14:36:16.156Z,49.40
2019-04-27T14:41:16.466Z,48.80
2019-04-27T14:46:16.378Z,48.70
2019-04-27T14:51:16.406Z,48.60
2019-04-27T14:56:18.102Z,49.20
2019-04-27T15:01:18.807Z,49.40
2019-04-27T15:06:19.804Z,49.00
2019-04-27T15:11:19.914Z,49.30
2019-04-27T15:16:19.621Z,49.40
2019-04-27T15:21:20.774Z,49.50
2019-04-27T15:26:22.939Z,49.50
2019-04-27T15:31:27.172Z,49.60
2019-04-27T15:36:52.772Z,50.00
2019-04-27T15:41:55.554Z,49.60
2019-04-27T15:46:55.306Z,49.90
2019-04-27T15:51:56.108Z,50.10
2019-04-27T15:56:58.066Z,50.00
2019-04-27T16:01:57.894Z,50.10
2019-04-27T16:06:58.245Z,50.30
2019-04-27T16:12:09.649Z,50.20
2019-04-27T16:17:02.929Z,50.00
2019-04-27T16:22:02.155Z,50.20
2019-04-27T16:27:01.831Z,50.20
2019-04-27T16:32:02.786Z,50.30
2019-04-27T16:37:03.043Z,50.30
2019-04-27T16:42:03.005Z,50.80
2019-04-27T16:47:02.746Z,52.00
2019-04-27T16:52:02.783Z,52.90
2019-04-27T16:57:05.373Z,53.60
2019-04-27T17:02:04.371Z,54.00
2019-04-27T17:07:04.084Z,54.40
2019-04-27T17:12:03.997Z,54.50
2019-04-27T17:17:28.299Z,54.60
2019-04-27T17:22:28.713Z,54.80
2019-04-27T17:27:38.148Z,55.10
2019-04-27T17:32:53.124Z,55.40
2019-04-27T17:37:54.359Z,55.80
2019-04-27T17:42:54.335Z,55.40
2019-04-27T17:47:54.359Z,55.80
2019-04-27T17:52:56.643Z,55.80
2019-04-27T17:58:00.581Z,56.10
2019-04-27T18:02:57.976Z,56.60
2019-04-27T18:07:58.042Z,56.30
2019-04-27T18:12:58.364Z,56.50
2019-04-27T18:18:00.106Z,56.70
2019-04-27T18:23:10.666Z,56.80
2019-04-27T18:28:14.813Z,56.70
2019-04-27T18:33:13.495Z,56.90
2019-04-27T18:38:13.237Z,57.00
2019-04-27T18:43:13.132Z,57.30
2019-04-27T18:48:22.314Z,57.60
2019-04-27T18:53:28.878Z,58.10
2019-04-27T18:58:29.056Z,58.10
2019-04-27T19:03:31.119Z,58.30
2019-04-27T19:08:30.043Z,58.60
2019-04-27T19:13:29.684Z,59.10
2019-04-27T19:18:29.418Z,59.40
2019-04-27T19:23:29.859Z,59.80
2019-04-27T19:28:49.323Z,60.00
2019-04-27T19:33:49.044Z,60.80
2019-04-27T19:38:49.788Z,60.70
2019-04-27T19:43:49.502Z,61.50
2019-04-27T19:48:49.978Z,61.70
2019-04-27T19:53:50.987Z,61.70
2019-04-27T19:58:53.953Z,61.90
2019-04-27T20:04:17.762Z,61.90
2019-04-27T20:09:23.087Z,62.30
2019-04-27T20:14:23.127Z,62.40
2019-04-27T20:19:22.787Z,62.10
2019-04-27T20:24:23.390Z,62.30
2019-04-27T20:29:23.055Z,62.40
2019-04-27T20:34:22.942Z,62.60
2019-04-27T20:39:22.756Z,62.80
2019-04-27T20:44:23.450Z,62.80
2019-04-27T20:49:23.108Z,63.00
2019-04-27T20:54:23.238Z,63.30
2019-04-27T20:59:22.923Z,63.60
2019-04-27T21:04:26.911Z,63.50
2019-04-27T21:09:26.574Z,63.50
2019-04-27T21:14:26.238Z,63.60
2019-04-27T21:19:25.882Z,63.50
2019-04-27T21:24:25.534Z,63.70
2019-04-27T21:29:25.312Z,64.00
2019-04-27T21:34:25.678Z,63.90
2019-04-27T21:39:25.401Z,64.00
2019-04-27T21:44:25.080Z,63.90
2019-04-27T21:49:24.802Z,64.00
2019-04-27T21:54:26.122Z,63.50
2019-04-27T21:59:25.762Z,63.70
2019-04-27T22:04:25.560Z,63.90
2019-04-27T22:09:25.227Z,63.90
2019-04-27T22:14:25.802Z,63.90
2019-04-27T22:19:26.030Z,63.90
2019-04-27T22:24:30.442Z,64.60
2019-04-27T22:29:31.963Z,65.20
2019-04-27T22:34:31.502Z,65.50
2019-04-27T22:39:40.831Z,65.50
2019-04-27T22:44:46.672Z,65.40
2019-04-27T22:49:46.639Z,65.50
2019-04-27T22:54:46.422Z,65.60
2019-04-27T23:00:03.343Z,65.30
2019-04-27T23:05:04.208Z,64.90
2019-04-27T23:10:05.238Z,65.40
2019-04-27T23:15:07.746Z,65.20
2019-04-27T23:20:08.082Z,65.20
2019-04-27T23:25:07.934Z,65.50
2019-04-27T23:30:09.079Z,65.30
2019-04-27T23:35:08.830Z,65.20
2019-04-27T23:40:11.158Z,65.40
2019-04-27T23:45:12.611Z,65.10
2019-04-27T23:50:13.407Z,65.40
2019-04-27T23:55:13.184Z,65.50
